createdAt,value
2024-05-09T00:00:35.824Z,6.47
2024-05-09T00:03:14.090Z,6.07
2024-05-09T00:05:49.008Z,6.70
2024-05-09T00:08:24.071Z,6.65
2024-05-09T00:11:01.555Z,6.68
2024-05-09T00:13:36.382Z,6.20
2024-05-09T00:16:11.047Z,6.70
2024-05-09T00:18:46.622Z,6.18
2024-05-09T00:21:21.470Z,6.25
2024-05-09T00:23:56.337Z,6.53
2024-05-09T00:26:33.795Z,6.15
2024-05-09T00:29:08.715Z,6.22
2024-05-09T00:31:43.438Z,7.03
2024-05-09T00:34:18.173Z,6.63
2024-05-09T00:36:53.147Z,7.10
2024-05-09T00:39:27.828Z,6.90
2024-05-09T00:42:05.190Z,7.60
2024-05-09T00:44:39.880Z,7.43
2024-05-09T00:47:15.470Z,6.88
2024-05-09T00:49:51.337Z,6.72
2024-05-09T00:52:26.695Z,7.75
2024-05-09T00:55:02.251Z,6.90
2024-05-09T00:57:40.315Z,6.90
2024-05-09T01:00:26.070Z,7.47
2024-05-09T01:03:06.086Z,7.05
2024-05-09T01:05:41.399Z,7.22
2024-05-09T01:08:16.774Z,6.75
2024-05-09T01:10:51.575Z,7.05
2024-05-09T01:13:29.192Z,6.72
2024-05-09T01:16:03.943Z,6.57
2024-05-09T01:18:38.679Z,6.55
2024-05-09T01:21:13.485Z,6.93
2024-05-09T01:23:51.016Z,7.20
2024-05-09T01:26:26.797Z,7.45
2024-05-09T01:29:01.772Z,8.00
2024-05-09T01:31:36.544Z,7.72
2024-05-09T01:34:11.483Z,7.53
2024-05-09T01:36:46.076Z,7.20
2024-05-09T01:39:23.410Z,6.65
2024-05-09T01:41:58.025Z,7.57
2024-05-09T01:44:32.697Z,6.95
2024-05-09T01:47:08.160Z,7.75
2024-05-09T01:49:43.443Z,7.57
2024-05-09T01:52:18.118Z,7.55
2024-05-09T01:54:55.395Z,6.70
2024-05-09T01:57:30.137Z,7.78
2024-05-09T02:00:07.619Z,7.50
2024-05-09T02:05:28.547Z,6.70
2024-05-09T02:08:03.455Z,7.10
2024-05-09T02:10:59.451Z,6.97
2024-05-09T02:13:34.081Z,7.40
2024-05-09T02:16:13.889Z,7.18
2024-05-09T02:18:49.267Z,7.43
2024-05-09T02:21:23.933Z,7.28
2024-05-09T02:23:58.570Z,7.00
2024-05-09T02:26:35.968Z,7.60
2024-05-09T02:29:11.037Z,6.90
2024-05-09T02:31:46.973Z,6.53
2024-05-09T02:34:21.816Z,7.05
2024-05-09T02:36:56.173Z,6.93
2024-05-09T02:39:30.953Z,7.88
2024-05-09T02:42:06.126Z,6.88
2024-05-09T02:44:40.833Z,7.32
2024-05-09T02:47:13.023Z,7.20
2024-05-09T02:49:47.738Z,6.72
2024-05-09T02:52:19.892Z,7.32
2024-05-09T02:54:54.633Z,7.82
2024-05-09T02:57:29.288Z,6.93
2024-05-09T03:00:05.991Z,7.15
2024-05-09T03:02:38.253Z,8.05
2024-05-09T03:05:13.601Z,7.15
2024-05-09T03:07:46.087Z,7.28
2024-05-09T03:10:25.610Z,8.18
2024-05-09T03:13:05.994Z,6.97
2024-05-09T03:15:40.651Z,7.10
2024-05-09T03:18:13.556Z,7.03
2024-05-09T03:20:48.608Z,7.40
2024-05-09T03:23:21.800Z,7.30
2024-05-09T03:25:57.551Z,8.20
2024-05-09T03:28:32.204Z,8.02
2024-05-09T03:31:08.098Z,7.40
2024-05-09T03:33:40.380Z,7.45
2024-05-09T03:36:15.382Z,7.60
2024-05-09T03:38:50.911Z,7.55
2024-05-09T03:41:25.667Z,7.72
2024-05-09T03:44:03.077Z,7.65
2024-05-09T03:46:40.598Z,7.95
2024-05-09T03:49:12.791Z,7.40
2024-05-09T03:51:47.492Z,7.63
2024-05-09T03:54:19.641Z,7.72
2024-05-09T03:56:54.498Z,7.65
2024-05-09T03:59:29.302Z,7.55
2024-05-09T04:02:06.508Z,7.50
2024-05-09T04:04:41.992Z,7.45
2024-05-09T04:07:16.637Z,7.38
2024-05-09T04:09:48.713Z,8.85
2024-05-09T04:12:23.566Z,7.47
2024-05-09T04:14:58.339Z,7.68
2024-05-09T04:17:33.296Z,7.55
2024-05-09T04:20:08.530Z,7.38
2024-05-09T04:22:45.400Z,7.70
2024-05-09T04:25:17.632Z,7.55
2024-05-09T04:27:55.739Z,8.07
2024-05-09T04:30:37.148Z,6.95
2024-05-09T04:33:15.352Z,7.40
2024-05-09T04:35:49.469Z,7.30
2024-05-09T04:38:24.232Z,7.75
2024-05-09T04:40:57.761Z,7.90
2024-05-09T04:43:33.388Z,7.38
2024-05-09T04:46:08.157Z,8.80
2024-05-09T04:48:43.113Z,8.18
2024-05-09T04:51:15.331Z,7.18
2024-05-09T04:53:50.088Z,7.22
2024-05-09T04:56:22.256Z,6.97
2024-05-09T04:58:57.081Z,7.35
2024-05-09T05:01:31.873Z,7.15
2024-05-09T05:04:06.762Z,7.72
2024-05-09T05:06:38.839Z,7.32
2024-05-09T05:09:14.400Z,7.75
2024-05-09T05:11:46.465Z,7.60
2024-05-09T05:14:21.561Z,7.15
2024-05-09T05:16:59.187Z,7.03
2024-05-09T05:19:31.494Z,6.97
2024-05-09T05:22:06.915Z,7.03
2024-05-09T05:24:39.043Z,7.10
2024-05-09T05:27:13.640Z,6.32
2024-05-09T05:29:45.693Z,6.88
2024-05-09T05:32:24.668Z,6.70
2024-05-09T05:34:57.347Z,6.85
2024-05-09T05:37:31.942Z,7.40
2024-05-09T05:40:05.663Z,6.55
2024-05-09T05:42:41.634Z,6.32
2024-05-09T05:45:13.824Z,6.63
2024-05-09T05:47:51.489Z,6.40
2024-05-09T05:50:28.170Z,6.57
2024-05-09T05:53:10.806Z,6.53
2024-05-09T05:55:43.047Z,7.00
2024-05-09T05:58:20.223Z,7.18
2024-05-09T06:00:53.965Z,7.70
2024-05-09T06:03:32.824Z,7.35
2024-05-09T06:08:39.946Z,6.38
2024-05-09T06:11:12.086Z,6.65
2024-05-09T06:13:46.915Z,6.57
2024-05-09T06:16:18.943Z,7.60
2024-05-09T06:18:56.551Z,6.43
2024-05-09T06:21:28.660Z,7.03
2024-05-09T06:24:06.543Z,6.47
2024-05-09T06:26:41.794Z,6.80
2024-05-09T06:29:23.163Z,6.60
2024-05-09T06:31:58.597Z,6.72
2024-05-09T06:34:39.556Z,7.15
2024-05-09T06:39:48.638Z,6.30
2024-05-09T06:42:20.778Z,6.57
2024-05-09T06:44:58.550Z,6.47
2024-05-09T06:47:30.821Z,6.43
2024-05-09T06:50:19.600Z,6.70
2024-05-09T06:52:55.770Z,7.22
2024-05-09T06:55:30.438Z,6.63
2024-05-09T06:58:02.602Z,6.22
2024-05-09T07:00:39.975Z,6.75
2024-05-09T07:05:55.945Z,6.35
2024-05-09T07:08:28.120Z,6.60
2024-05-09T07:11:02.846Z,6.30
2024-05-09T07:13:34.996Z,6.35
2024-05-09T07:16:10.551Z,7.95
2024-05-09T07:18:42.901Z,6.40
2024-05-09T07:21:22.946Z,6.25
2024-05-09T07:23:55.196Z,6.00
2024-05-09T07:26:30.088Z,6.00
2024-05-09T07:29:02.572Z,5.68
2024-05-09T07:31:37.313Z,7.82
2024-05-09T07:34:12.088Z,5.72
2024-05-09T07:36:49.676Z,9.23
2024-05-09T07:39:24.434Z,5.80
2024-05-09T07:41:59.234Z,5.10
2024-05-09T07:44:33.226Z,5.68
2024-05-09T07:48:14.688Z,5.82
2024-05-09T07:51:51.328Z,5.50
2024-05-09T07:55:34.829Z,5.35
2024-05-09T07:58:09.587Z,5.13
2024-05-09T08:00:41.784Z,5.40
2024-05-09T08:03:16.658Z,6.05
2024-05-09T08:05:48.746Z,4.63
2024-05-09T08:08:26.057Z,5.18
2024-05-09T08:10:58.520Z,5.18
2024-05-09T08:13:33.108Z,5.20
2024-05-09T08:16:06.953Z,5.18
2024-05-09T08:18:43.332Z,4.28
2024-05-09T08:21:15.583Z,3.83
2024-05-09T08:23:52.934Z,4.15
2024-05-09T08:26:25.067Z,4.50
2024-05-09T08:28:59.837Z,3.85
2024-05-09T08:31:32.150Z,3.63
2024-05-09T08:34:07.169Z,3.63
2024-05-09T08:36:40.918Z,3.70
2024-05-09T08:39:18.421Z,4.18
2024-05-09T08:41:51.489Z,3.42
2024-05-09T08:44:26.251Z,3.85
2024-05-09T08:46:59.559Z,3.70
2024-05-09T08:49:35.136Z,3.13
2024-05-09T08:52:08.342Z,3.80
2024-05-09T08:54:45.859Z,3.90
2024-05-09T08:57:19.292Z,3.90
2024-05-09T08:59:55.640Z,3.72
2024-05-09T09:02:28.572Z,3.90
2024-05-09T09:05:11.361Z,4.10
2024-05-09T09:07:48.307Z,3.88
2024-05-09T09:10:32.143Z,4.20
2024-05-09T09:13:09.428Z,4.13
2024-05-09T09:15:50.939Z,3.42
2024-05-09T09:18:24.704Z,3.72
2024-05-09T09:20:59.588Z,5.00
2024-05-09T09:23:33.627Z,3.92
2024-05-09T09:26:11.319Z,4.18
2024-05-09T09:28:44.938Z,4.10
2024-05-09T09:31:21.619Z,4.30
2024-05-09T09:33:55.358Z,4.07
2024-05-09T09:36:32.973Z,3.95
2024-05-09T09:39:05.915Z,4.40
2024-05-09T09:41:47.798Z,4.25
2024-05-09T09:44:22.007Z,3.85
2024-05-09T09:46:59.413Z,4.15
2024-05-09T09:49:33.331Z,5.03
2024-05-09T09:52:11.157Z,4.40
2024-05-09T09:54:44.950Z,4.40
2024-05-09T09:57:22.558Z,5.18
2024-05-09T09:59:55.613Z,4.70
2024-05-09T10:02:30.809Z,4.28
2024-05-09T10:05:03.401Z,3.83
2024-05-09T10:07:43.203Z,4.25
2024-05-09T10:10:29.959Z,3.90
2024-05-09T10:13:10.815Z,4.22
2024-05-09T10:15:46.475Z,4.07
2024-05-09T10:18:27.272Z,4.82
2024-05-09T10:21:02.425Z,3.95
2024-05-09T10:23:37.273Z,3.60
2024-05-09T10:26:09.644Z,4.22
2024-05-09T10:28:48.412Z,4.15
2024-05-09T10:31:20.739Z,4.03
2024-05-09T10:33:57.352Z,3.58
2024-05-09T10:36:29.678Z,3.30
2024-05-09T10:39:05.442Z,3.83
2024-05-09T10:41:38.393Z,4.20
2024-05-09T10:44:17.507Z,4.20
2024-05-09T10:49:25.873Z,3.80
2024-05-09T10:51:58.354Z,4.80
2024-05-09T10:54:38.518Z,4.18
2024-05-09T10:57:10.558Z,5.00
2024-05-09T10:59:48.042Z,4.32
2024-05-09T11:02:20.957Z,4.80
2024-05-09T11:04:56.047Z,4.80
2024-05-09T11:07:28.335Z,4.20
2024-05-09T11:10:06.266Z,4.90
2024-05-09T11:12:39.855Z,3.40
2024-05-09T11:15:17.600Z,3.80
2024-05-09T11:17:50.871Z,4.43
2024-05-09T11:20:36.528Z,3.97
2024-05-09T11:23:09.279Z,5.15
2024-05-09T11:25:43.981Z,4.70
2024-05-09T11:28:17.635Z,4.45
2024-05-09T11:30:55.316Z,5.00
2024-05-09T11:33:29.143Z,4.43
2024-05-09T11:36:04.012Z,4.32
2024-05-09T11:38:37.984Z,3.95
2024-05-09T11:41:19.623Z,4.30
2024-05-09T11:43:51.583Z,4.65
2024-05-09T11:46:28.964Z,4.35
2024-05-09T11:49:01.317Z,5.18
2024-05-09T11:51:36.106Z,4.38
2024-05-09T11:54:08.159Z,3.72
2024-05-09T11:56:42.954Z,3.90
2024-05-09T11:59:15.045Z,3.85
2024-05-09T12:01:52.392Z,4.00
2024-05-09T12:04:24.912Z,4.22
2024-05-09T12:06:59.820Z,4.00
2024-05-09T12:09:32.672Z,5.45
2024-05-09T12:12:08.342Z,5.00
2024-05-09T12:14:40.422Z,4.35
2024-05-09T12:17:19.348Z,4.68
2024-05-09T12:22:27.483Z,3.85
2024-05-09T12:24:59.618Z,4.22
2024-05-09T12:27:36.441Z,4.35
2024-05-09T12:30:14.167Z,4.82
2024-05-09T12:32:51.640Z,4.22
2024-05-09T12:35:25.659Z,4.38
2024-05-09T12:38:02.282Z,4.72
2024-05-09T12:40:37.658Z,4.00
2024-05-09T12:43:13.754Z,5.13
2024-05-09T12:45:46.045Z,5.43
2024-05-09T12:48:23.712Z,4.38
2024-05-09T12:50:57.561Z,3.95
2024-05-09T12:53:32.639Z,5.32
2024-05-09T12:56:06.661Z,3.78
2024-05-09T12:58:42.654Z,6.35
2024-05-09T13:01:14.856Z,4.28
2024-05-09T13:03:53.024Z,4.93
2024-05-09T13:06:25.281Z,4.20
2024-05-09T13:09:00.344Z,5.10
2024-05-09T13:11:32.369Z,3.58
2024-05-09T13:14:07.001Z,5.05
2024-05-09T13:16:39.263Z,4.38
2024-05-09T13:19:17.132Z,4.68
2024-05-09T13:21:50.781Z,4.25
2024-05-09T13:24:25.495Z,4.85
2024-05-09T13:26:57.628Z,4.10
2024-05-09T13:29:39.123Z,4.90
2024-05-09T13:32:13.232Z,4.25
2024-05-09T13:34:50.581Z,4.13
2024-05-09T13:37:22.902Z,4.35
2024-05-09T13:39:57.676Z,4.20
2024-05-09T13:42:30.714Z,4.20
2024-05-09T13:45:05.396Z,4.13
2024-05-09T13:47:37.604Z,4.38
2024-05-09T13:50:27.553Z,3.90
2024-05-09T13:53:09.113Z,5.28
2024-05-09T13:55:44.140Z,4.10
2024-05-09T13:58:16.868Z,4.03
2024-05-09T14:00:51.979Z,4.93
2024-05-09T14:03:24.656Z,4.38
2024-05-09T14:06:02.365Z,4.18
2024-05-09T14:08:34.725Z,4.20
2024-05-09T14:11:09.338Z,4.03
2024-05-09T14:13:41.416Z,3.75
2024-05-09T14:16:16.290Z,3.15
2024-05-09T14:18:48.740Z,3.08
2024-05-09T14:21:26.058Z,3.97
2024-05-09T14:23:58.101Z,3.83
2024-05-09T14:26:32.738Z,3.88
2024-05-09T14:29:04.864Z,4.43
2024-05-09T14:31:39.874Z,3.17
2024-05-09T14:34:12.238Z,4.40
2024-05-09T14:36:49.930Z,4.50
2024-05-09T14:39:21.976Z,4.30
2024-05-09T14:41:56.669Z,4.70
2024-05-09T14:44:28.662Z,3.92
2024-05-09T14:47:03.540Z,4.03
2024-05-09T14:49:35.618Z,3.95
2024-05-09T14:52:13.147Z,4.03
2024-05-09T14:54:45.658Z,4.30
2024-05-09T14:57:21.530Z,3.95
2024-05-09T14:59:53.450Z,4.53
2024-05-09T15:02:28.134Z,3.53
2024-05-09T15:05:00.342Z,3.30
2024-05-09T15:07:38.257Z,4.72
2024-05-09T15:10:16.657Z,3.83
2024-05-09T15:13:00.965Z,4.38
2024-05-09T15:15:33.142Z,3.50
2024-05-09T15:18:08.590Z,3.90
2024-05-09T15:20:41.482Z,4.05
2024-05-09T15:23:19.017Z,4.20
2024-05-09T15:25:51.117Z,4.65
2024-05-09T15:28:25.854Z,4.95
2024-05-09T15:30:58.061Z,4.90
2024-05-09T15:33:32.916Z,4.78
2024-05-09T15:36:08.023Z,4.30
2024-05-09T15:38:42.681Z,4.93
2024-05-09T15:41:17.273Z,5.05
2024-05-09T15:43:49.306Z,4.60
2024-05-09T15:46:24.253Z,5.45
2024-05-09T15:48:56.527Z,6.55
2024-05-09T15:51:31.175Z,6.57
2024-05-09T15:54:06.001Z,6.50
2024-05-09T15:56:41.071Z,6.63
2024-05-09T15:59:13.124Z,6.75
2024-05-09T16:01:47.893Z,24.77
2024-05-09T16:04:21.290Z,6.50
2024-05-09T16:06:56.101Z,6.43
2024-05-09T16:09:31.232Z,6.47
2024-05-09T16:12:06.112Z,6.72
2024-05-09T16:14:39.425Z,6.13
2024-05-09T16:17:14.300Z,6.30
2024-05-09T16:19:46.375Z,6.47
2024-05-09T16:22:21.071Z,6.88
2024-05-09T16:24:55.844Z,6.15
2024-05-09T16:27:30.697Z,7.32
2024-05-09T16:30:07.014Z,7.10
2024-05-09T16:32:44.671Z,6.90
2024-05-09T16:35:17.742Z,5.78
2024-05-09T16:37:52.781Z,7.28
2024-05-09T16:40:36.135Z,7.28
2024-05-09T16:43:15.805Z,6.10
2024-05-09T16:45:48.017Z,7.05
2024-05-09T16:48:22.727Z,6.70
2024-05-09T16:50:55.096Z,6.30
2024-05-09T16:53:29.832Z,6.60
2024-05-09T16:56:06.510Z,6.18
2024-05-09T16:58:41.440Z,6.25
2024-05-09T17:01:13.995Z,7.03
2024-05-09T17:03:48.754Z,6.20
2024-05-09T17:06:21.019Z,6.38
2024-05-09T17:08:59.096Z,5.82
2024-05-09T17:11:39.516Z,5.40
2024-05-09T17:14:14.497Z,6.32
2024-05-09T17:16:46.641Z,7.20
2024-05-09T17:19:21.522Z,5.97
2024-05-09T17:21:54.778Z,5.75
2024-05-09T17:24:29.557Z,7.00
2024-05-09T17:27:05.306Z,6.20
2024-05-09T17:29:40.360Z,6.75
2024-05-09T17:32:15.078Z,6.15
2024-05-09T17:34:47.289Z,5.53
2024-05-09T17:37:22.149Z,5.40
2024-05-09T17:39:55.604Z,5.57
2024-05-09T17:42:33.186Z,5.30
2024-05-09T17:45:06.713Z,4.70
2024-05-09T17:47:41.611Z,4.78
2024-05-09T17:50:20.954Z,5.00
2024-05-09T17:53:01.903Z,4.50
2024-05-09T17:55:35.514Z,5.25
2024-05-09T17:58:15.742Z,5.45
2024-05-09T18:00:47.991Z,5.72
2024-05-09T18:03:25.394Z,4.80
2024-05-09T18:05:58.124Z,5.50
2024-05-09T18:08:32.764Z,5.30
2024-05-09T18:11:05.779Z,5.82
2024-05-09T18:13:44.651Z,5.47
2024-05-09T18:16:18.209Z,5.07
2024-05-09T18:18:53.601Z,5.65
2024-05-09T18:21:25.716Z,6.00
2024-05-09T18:24:00.573Z,7.28
2024-05-09T18:26:32.639Z,8.57
2024-05-09T18:29:10.879Z,7.20
2024-05-09T18:31:43.053Z,7.38
2024-05-09T18:34:18.995Z,7.07
2024-05-09T18:36:51.130Z,6.68
2024-05-09T18:39:25.911Z,7.10
2024-05-09T18:42:00.467Z,6.85
2024-05-09T18:44:37.979Z,7.97
2024-05-09T18:47:10.449Z,6.60
2024-05-09T18:49:45.187Z,7.13
2024-05-09T18:52:17.337Z,12.63
2024-05-09T18:54:52.087Z,10.02
2024-05-09T18:57:24.935Z,7.30
2024-05-09T19:00:02.315Z,6.68
2024-05-09T19:02:34.534Z,7.55
2024-05-09T19:05:09.524Z,7.90
2024-05-09T19:07:42.778Z,7.80
2024-05-09T19:10:22.699Z,8.13
2024-05-09T19:12:58.152Z,8.05
2024-05-09T19:15:35.610Z,7.45
2024-05-09T19:18:10.865Z,7.32
2024-05-09T19:20:43.715Z,7.55
2024-05-09T19:23:18.430Z,7.35
2024-05-09T19:25:50.434Z,7.13
2024-05-09T19:28:25.401Z,6.88
2024-05-09T19:31:00.521Z,7.03
2024-05-09T19:33:36.943Z,7.22
2024-05-09T19:36:09.539Z,6.20
2024-05-09T19:38:47.840Z,6.65
2024-05-09T19:41:19.995Z,6.30
2024-05-09T19:43:54.921Z,6.38
2024-05-09T19:46:29.612Z,6.93
2024-05-09T19:49:05.852Z,6.03
2024-05-09T19:51:38.404Z,5.88
2024-05-09T19:54:13.282Z,6.43
2024-05-09T19:56:45.404Z,5.82
2024-05-09T19:59:22.518Z,6.68
2024-05-09T20:01:57.303Z,5.90
2024-05-09T20:04:32.080Z,5.75
2024-05-09T20:07:04.678Z,5.80
2024-05-09T20:09:39.396Z,6.05
2024-05-09T20:12:11.461Z,5.88
2024-05-09T20:14:46.051Z,5.60
2024-05-09T20:17:20.793Z,5.47
2024-05-09T20:19:55.932Z,5.13
2024-05-09T20:22:28.165Z,5.80
2024-05-09T20:25:04.102Z,6.18
2024-05-09T20:27:36.235Z,5.55
2024-05-09T20:30:17.025Z,5.45
2024-05-09T20:32:56.192Z,5.80
2024-05-09T20:35:33.126Z,5.45
2024-05-09T20:38:08.213Z,5.80
2024-05-09T20:40:40.658Z,5.18
2024-05-09T20:43:16.003Z,5.40
2024-05-09T20:45:48.084Z,5.93
2024-05-09T20:48:25.438Z,5.75
2024-05-09T20:50:57.750Z,6.07
2024-05-09T20:53:32.575Z,6.00
2024-05-09T20:56:05.174Z,6.00
2024-05-09T20:58:39.970Z,5.30
2024-05-09T21:01:12.319Z,6.95
2024-05-09T21:03:50.385Z,5.85
2024-05-09T21:06:22.678Z,6.57
2024-05-09T21:08:58.537Z,5.95
2024-05-09T21:11:31.836Z,6.00
2024-05-09T21:14:06.589Z,5.35
2024-05-09T21:16:38.870Z,5.80
2024-05-09T21:19:16.302Z,5.80
2024-05-09T21:21:50.593Z,5.97
2024-05-09T21:24:26.260Z,5.78
2024-05-09T21:26:58.227Z,5.75
2024-05-09T21:29:32.798Z,5.85
2024-05-09T21:32:05.410Z,5.63
2024-05-09T21:34:42.790Z,6.35
2024-05-09T21:37:15.039Z,6.90
2024-05-09T21:39:49.810Z,6.25
2024-05-09T21:42:21.907Z,6.18
2024-05-09T21:44:56.641Z,6.82
2024-05-09T21:47:29.357Z,6.13
2024-05-09T21:50:07.843Z,6.13
2024-05-09T21:52:40.163Z,6.70
2024-05-09T21:55:15.098Z,6.72
2024-05-09T21:57:47.322Z,6.85
2024-05-09T22:00:28.986Z,6.95
2024-05-09T22:03:08.672Z,7.87
2024-05-09T22:05:49.520Z,7.20
2024-05-09T22:08:21.639Z,6.75
2024-05-09T22:10:56.557Z,7.80
2024-05-09T22:13:29.009Z,7.70
2024-05-09T22:16:05.695Z,7.88
2024-05-09T22:18:37.990Z,7.85
2024-05-09T22:21:15.461Z,7.53
2024-05-09T22:23:47.998Z,7.13
2024-05-09T22:26:22.684Z,7.22
2024-05-09T22:28:54.787Z,8.13
2024-05-09T22:31:29.489Z,8.02
2024-05-09T22:34:01.810Z,8.20
2024-05-09T22:36:39.208Z,8.32
2024-05-09T22:39:11.374Z,8.73
2024-05-09T22:41:46.071Z,7.95
2024-05-09T22:44:19.156Z,7.68
2024-05-09T22:46:53.894Z,9.02
2024-05-09T22:49:26.342Z,8.18
2024-05-09T22:52:06.134Z,9.07
2024-05-09T22:54:38.274Z,8.00
2024-05-09T22:57:12.920Z,8.40
2024-05-09T22:59:45.085Z,8.88
2024-05-09T23:02:19.993Z,8.93
2024-05-09T23:04:52.730Z,8.70
2024-05-09T23:07:29.972Z,9.70
2024-05-09T23:10:10.842Z,8.35
2024-05-09T23:12:45.414Z,8.70
2024-05-09T23:15:20.068Z,9.38
2024-05-09T23:17:52.290Z,8.95
2024-05-09T23:20:36.020Z,9.45
2024-05-09T23:23:13.678Z,8.70
2024-05-09T23:25:48.615Z,8.02
2024-05-09T23:28:20.811Z,8.43
2024-05-09T23:30:55.595Z,9.20
2024-05-09T23:33:28.262Z,8.68
2024-05-09T23:36:02.992Z,9.27
2024-05-09T23:38:38.947Z,8.90
2024-05-09T23:41:13.674Z,9.05
2024-05-09T23:43:45.948Z,9.38
2024-05-09T23:46:20.562Z,8.50
2024-05-09T23:48:52.894Z,8.52
2024-05-09T23:51:27.566Z,9.07
2024-05-09T23:54:02.365Z,8.45
2024-05-09T23:56:37.386Z,9.35
2024-05-09T23:59:09.450Z,9.82
